MSC Bari — A8YD3 — position and weather

sailwx.info

Track history (hours):
 
Tides and Currents Weather Stations Pressure Air Temp Water Temp Dewpoint Dewpoint Depression Visibility Wind Speed Wind Dir Waves Ship Positions

MSC Bari

Last reported at 2017-May-22 07:52 UTC. Time now 2017-May-24 10:06 UTC.
Position N 36°00' E 120°12'.

Length 366 m; draft 13.1 m.

Type: Ship (hazmat cat A). MMSI: 636092188.

Date/timePositionNaut miles runAvg speedWind from/ knotsBaromVisibWave heightAir tempDewpointWater temp
2017-May-22 07:52N 36°00' E 120°12'  
2017-May-18 21:31N 35°48' E 121°03'0 0.0
2017-May-18 21:22N 35°48' E 121°03'98 5.1
2017-May-18 02:11N 34°26' E 122°09'314.6
2017-May-18 01:59N 34°23' E 122°11'714.3
2017-May-18 01:30N 34°18' E 122°16'1919.8
2017-May-18 00:32N 34°03' E 122°30'120.9
2017-May-18 00:30N 34°02' E 122°31'1020.0
2017-May-17 23:59N 33°54' E 122°39'915.0
2017-May-17 23:24N 33°48' E 122°46'614.5
2017-May-17 22:59N 33°43' E 122°50'714.6
2017-May-17 22:30N 33°38' E 122°56'714.7
2017-May-17 22:00N 33°32' E 123°01'1714.9
2017-May-17 20:51N 33°19' E 123°14'515.0
2017-May-17 20:30N 33°14' E 123°18'714.6
2017-May-17 19:59N 33°07' E 123°20'815.9
2017-May-17 19:29N 32°59' E 123°20'815.9
2017-May-17 19:00N 32°51' E 123°20'1315.5
2017-May-17 18:08N 32°38' E 123°20'415.2
2017-May-17 17:51N 32°34' E 123°20'515.0
2017-May-17 17:30N 32°28' E 123°20'1814.9
2017-May-17 16:19N 32°11' E 123°20'1414.1
2017-May-17 15:21N 31°57' E 123°21'1013.6
2017-May-17 14:36N 31°47' E 123°20'213.5
2017-May-17 14:28N 31°45' E 123°20'1313.3
2017-May-17 13:28N 31°32' E 123°21'613.2
2017-May-17 13:00N 31°26' E 123°21'813.5
2017-May-17 12:25N 31°18' E 123°21'613.5
2017-May-17 12:00N 31°12' E 123°20'1014.2
2017-May-17 11:18N 31°02' E 123°20'414.3
2017-May-17 11:00N 30°58' E 123°20'3114.6
2017-May-17 08:52N 30°27' E 123°20'46914.5
2017-May-16 00:24N 23°55' E 118°29'819.1
2017-May-16 00:00N 23°50' E 118°23'  
Track history (hours):
 
Tides and Currents Weather Stations Pressure Air Temp Water Temp Dewpoint Dewpoint Depression Visibility Wind Speed Wind Dir Waves Ship Positions

MSC Bari

Last reported at 2017-May-22 07:52 UTC. Time now 2017-May-24 10:06 UTC.
Position N 36°00' E 120°12'.

Length 366 m; draft 13.1 m.

Type: Ship (hazmat cat A). MMSI: 636092188.

Date/timePositionNaut miles runAvg speedWind from/ knotsBaromVisibWave heightAir tempDewpointWater temp
2017-May-22 07:52N 36°00' E 120°12'  
2017-May-18 21:31N 35°48' E 121°03'0 0.0
2017-May-18 21:22N 35°48' E 121°03'98 5.1
2017-May-18 02:11N 34°26' E 122°09'314.6
2017-May-18 01:59N 34°23' E 122°11'714.3
2017-May-18 01:30N 34°18' E 122°16'1919.8
2017-May-18 00:32N 34°03' E 122°30'120.9
2017-May-18 00:30N 34°02' E 122°31'1020.0
2017-May-17 23:59N 33°54' E 122°39'915.0
2017-May-17 23:24N 33°48' E 122°46'614.5
2017-May-17 22:59N 33°43' E 122°50'714.6
2017-May-17 22:30N 33°38' E 122°56'714.7
2017-May-17 22:00N 33°32' E 123°01'1714.9
2017-May-17 20:51N 33°19' E 123°14'515.0
2017-May-17 20:30N 33°14' E 123°18'714.6
2017-May-17 19:59N 33°07' E 123°20'815.9
2017-May-17 19:29N 32°59' E 123°20'815.9
2017-May-17 19:00N 32°51' E 123°20'1315.5
2017-May-17 18:08N 32°38' E 123°20'415.2
2017-May-17 17:51N 32°34' E 123°20'515.0
2017-May-17 17:30N 32°28' E 123°20'1814.9
2017-May-17 16:19N 32°11' E 123°20'1414.1
2017-May-17 15:21N 31°57' E 123°21'1013.6
2017-May-17 14:36N 31°47' E 123°20'213.5
2017-May-17 14:28N 31°45' E 123°20'1313.3
2017-May-17 13:28N 31°32' E 123°21'613.2
2017-May-17 13:00N 31°26' E 123°21'813.5
2017-May-17 12:25N 31°18' E 123°21'613.5
2017-May-17 12:00N 31°12' E 123°20'1014.2
2017-May-17 11:18N 31°02' E 123°20'414.3
2017-May-17 11:00N 30°58' E 123°20'3114.6
2017-May-17 08:52N 30°27' E 123°20'46914.5
2017-May-16 00:24N 23°55' E 118°29'819.1
2017-May-16 00:00N 23°50' E 118°23'  

Dump ship's entire track history